Time;durP1;ratioP1;P1;durP2;ratioP2;P2;SDS_P1;SDS_P2;PMS_P1;PMS_P2;Temp;Humidity;BMP_temperature;BMP_pressure;BME280_temperature;BME280_humidity;BME280_pressure;Samples;Min_cycle;Max_cycle;Signal;HPM_P1;HPM_P2
2022/09/06 00:00:23;;;;;;;12.67;11.77;;;;;;;;;;5039352;28;24473;-49
2022/09/06 00:02:49;;;;;;;13.73;12.63;;;;;;;;;;5039502;28;24426;-47
2022/09/06 00:05:14;;;;;;;14.02;13.02;;;;;;;;;;5034272;28;24415;-46
2022/09/06 00:07:39;;;;;;;14.20;13.15;;;;;;;;;;5037942;28;24511;-46
2022/09/06 00:10:04;;;;;;;12.80;11.87;;;;;;;;;;5043134;28;24473;-46
2022/09/06 00:12:30;;;;;;;12.70;11.70;;;;;;;;;;5033729;28;24857;-46
2022/09/06 00:14:55;;;;;;;13.50;12.40;;;;;;;;;;5039146;28;24415;-46
2022/09/06 00:17:20;;;;;;;13.55;12.55;;;;;;;;;;5046829;28;24521;-46
2022/09/06 00:19:45;;;;;;;12.90;11.90;;;;;;;;;;5038870;28;24992;-45
2022/09/06 00:22:11;;;;;;;11.90;10.90;;;;;;;;;;5048677;28;24781;-45
2022/09/06 00:24:36;;;;;;;12.20;11.20;;;;;;;;;;5046102;28;25024;-46
2022/09/06 00:27:05;;;;;;;13.23;12.23;;;;;;;;;;5041507;28;24969;-45
2022/09/06 00:29:30;;;;;;;12.70;11.68;;;;;;;;;;5037598;28;24419;-46
2022/09/06 00:31:55;;;;;;;12.43;11.53;;;;;;;;;;5043541;28;24478;-46
2022/09/06 00:34:20;;;;;;;13.00;12.00;;;;;;;;;;5034282;28;24439;-46
2022/09/06 00:36:45;;;;;;;12.85;11.90;;;;;;;;;;5045676;28;24434;-46
2022/09/06 00:39:11;;;;;;;12.53;11.53;;;;;;;;;;5034595;28;24427;-46
2022/09/06 00:41:36;;;;;;;13.30;12.30;;;;;;;;;;5040457;28;24427;-51
2022/09/06 00:44:01;;;;;;;12.87;11.97;;;;;;;;;;5027945;28;24824;-46
2022/09/06 00:46:27;;;;;;;12.77;11.80;;;;;;;;;;5040893;28;25266;-46
2022/09/06 00:48:56;;;;;;;13.68;12.68;;;;;;;;;;5035220;28;24422;-46
2022/09/06 00:51:22;;;;;;;13.40;12.40;;;;;;;;;;5042331;28;24467;-46
2022/09/06 00:53:48;;;;;;;14.05;12.95;;;;;;;;;;5045618;28;24566;-46
2022/09/06 00:56:13;;;;;;;13.55;12.55;;;;;;;;;;5032551;28;24530;-46
2022/09/06 00:58:38;;;;;;;13.63;12.63;;;;;;;;;;5033051;28;25002;-46
2022/09/06 01:01:04;;;;;;;13.47;12.40;;;;;;;;;;5037027;28;24423;-46
2022/09/06 01:03:29;;;;;;;13.23;12.23;;;;;;;;;;5036934;28;24774;-46
2022/09/06 01:05:59;;;;;;;13.80;12.70;;;;;;;;;;5034797;28;24523;-46
2022/09/06 01:08:24;;;;;;;13.80;12.70;;;;;;;;;;5041975;28;24873;-47
2022/09/06 01:11:09;;;;;;;13.02;12.02;;;;;;;;;;5027974;28;24490;-47
2022/09/06 01:13:44;;;;;;;13.25;12.15;;;;;;;;;;5034722;28;24574;-46
2022/09/06 01:16:12;;;;;;;12.88;11.88;;;;;;;;;;5038542;28;24523;-46
2022/09/06 01:18:47;;;;;;;13.20;12.10;;;;;;;;;;5034678;28;24962;-46
2022/09/06 01:21:27;;;;;;;13.53;12.47;;;;;;;;;;5037939;28;24782;-47
2022/09/06 01:24:28;;;;;;;13.98;12.93;;;;;;;;;;5040664;28;24423;-46
2022/09/06 01:27:18;;;;;;;14.13;13.10;;;;;;;;;;5059183;28;24487;-46
2022/09/06 01:29:44;;;;;;;14.02;12.93;;;;;;;;;;5041076;28;24443;-46
2022/09/06 01:32:22;;;;;;;14.05;13.05;;;;;;;;;;5042559;28;24457;-46
2022/09/06 01:34:51;;;;;;;14.00;12.90;;;;;;;;;;5039705;28;24493;-47
2022/09/06 01:37:18;;;;;;;13.67;12.67;;;;;;;;;;5040337;28;24561;-47
2022/09/06 01:39:44;;;;;;;13.43;12.43;;;;;;;;;;5032016;28;24872;-46
2022/09/06 01:42:14;;;;;;;12.97;11.97;;;;;;;;;;5040625;28;25015;-47
2022/09/06 01:44:42;;;;;;;13.93;12.82;;;;;;;;;;5035013;28;24950;-47
2022/09/06 01:47:12;;;;;;;12.43;11.43;;;;;;;;;;5035853;28;24840;-47
2022/09/06 01:49:52;;;;;;;12.60;11.60;;;;;;;;;;5032738;28;24447;-46
2022/09/06 01:52:35;;;;;;;14.07;12.98;;;;;;;;;;5034848;28;24481;-46
2022/09/06 01:55:14;;;;;;;13.83;12.73;;;;;;;;;;5032891;28;24426;-47
2022/09/06 01:57:52;;;;;;;13.70;12.70;;;;;;;;;;5034427;28;24848;-46
2022/09/06 02:00:18;;;;;;;13.75;12.70;;;;;;;;;;5035994;28;24443;-47
2022/09/06 02:03:04;;;;;;;13.23;12.23;;;;;;;;;;5042356;28;25148;-47
2022/09/06 02:05:47;;;;;;;13.15;12.15;;;;;;;;;;5036948;28;24435;-46
2022/09/06 02:08:24;;;;;;;12.90;11.90;;;;;;;;;;5036365;28;24470;-47
2022/09/06 02:10:53;;;;;;;13.10;12.00;;;;;;;;;;5037357;28;24497;-47
2022/09/06 02:13:20;;;;;;;13.57;12.48;;;;;;;;;;5039687;28;24526;-47
2022/09/06 02:15:49;;;;;;;13.20;12.10;;;;;;;;;;5035554;28;24439;-46
2022/09/06 02:18:17;;;;;;;13.45;12.35;;;;;;;;;;5041132;28;24477;-46
2022/09/06 02:20:47;;;;;;;13.20;12.20;;;;;;;;;;5030703;28;24478;-46
2022/09/06 02:23:13;;;;;;;14.75;13.55;;;;;;;;;;5036998;28;24790;-47
2022/09/06 02:25:41;;;;;;;13.60;12.50;;;;;;;;;;5037341;28;24513;-47
2022/09/06 02:28:07;;;;;;;14.60;13.40;;;;;;;;;;5032917;28;24490;-48
2022/09/06 02:30:35;;;;;;;13.00;12.00;;;;;;;;;;5033388;28;24477;-47
2022/09/06 02:33:02;;;;;;;12.68;11.68;;;;;;;;;;5036846;28;24510;-46
2022/09/06 02:35:28;;;;;;;12.80;11.80;;;;;;;;;;5037892;28;24542;-46
2022/09/06 02:37:55;;;;;;;12.13;11.23;;;;;;;;;;5040279;28;24522;-46
2022/09/06 02:40:20;;;;;;;11.55;10.70;;;;;;;;;;5038974;28;24696;-45
2022/09/06 02:42:45;;;;;;;12.70;11.70;;;;;;;;;;5044573;28;24489;-46
2022/09/06 02:45:10;;;;;;;13.02;12.02;;;;;;;;;;5031790;28;24429;-45
2022/09/06 02:47:35;;;;;;;13.13;12.13;;;;;;;;;;5036205;28;24465;-47
2022/09/06 02:50:01;;;;;;;12.63;11.63;;;;;;;;;;5041243;28;24470;-45
2022/09/06 02:52:26;;;;;;;13.00;12.00;;;;;;;;;;5039838;28;24419;-46
2022/09/06 02:54:51;;;;;;;12.97;11.87;;;;;;;;;;5048054;28;24418;-45
2022/09/06 02:57:16;;;;;;;12.00;11.10;;;;;;;;;;5042509;28;24816;-46
2022/09/06 02:59:41;;;;;;;11.70;10.80;;;;;;;;;;5051425;28;24485;-45
2022/09/06 03:02:06;;;;;;;12.60;11.30;;;;;;;;;;5046064;28;25544;-45
2022/09/06 03:04:32;;;;;;;12.60;11.60;;;;;;;;;;5032788;28;24424;-47
2022/09/06 03:06:57;;;;;;;11.50;10.70;;;;;;;;;;5050518;28;24466;-45
2022/09/06 03:09:22;;;;;;;11.98;10.90;;;;;;;;;;5034646;28;24435;-45
2022/09/06 03:11:47;;;;;;;12.85;11.85;;;;;;;;;;5042243;28;24435;-45
2022/09/06 03:14:15;;;;;;;13.00;12.00;;;;;;;;;;5038970;28;24447;-45
2022/09/06 03:16:40;;;;;;;12.32;11.43;;;;;;;;;;5046325;28;24535;-46
2022/09/06 03:19:05;;;;;;;12.30;11.30;;;;;;;;;;5036239;28;25586;-46
2022/09/06 03:21:30;;;;;;;12.43;11.50;;;;;;;;;;5043778;28;24427;-47
2022/09/06 03:23:57;;;;;;;12.40;11.30;;;;;;;;;;5034977;28;24473;-46
2022/09/06 03:26:22;;;;;;;12.48;11.40;;;;;;;;;;5037381;28;24515;-46
2022/09/06 03:28:49;;;;;;;12.77;11.77;;;;;;;;;;5031563;28;24502;-45
2022/09/06 03:31:14;;;;;;;12.20;11.30;;;;;;;;;;5036729;28;24969;-46
2022/09/06 03:33:39;;;;;;;13.60;12.40;;;;;;;;;;5034005;28;24458;-46
2022/09/06 03:36:04;;;;;;;12.90;11.90;;;;;;;;;;5050570;28;24497;-46
2022/09/06 03:38:30;;;;;;;13.20;12.20;;;;;;;;;;5035387;28;24403;-46
2022/09/06 03:40:55;;;;;;;13.10;12.00;;;;;;;;;;5049871;28;24479;-46
2022/09/06 03:43:21;;;;;;;11.60;10.70;;;;;;;;;;5054153;28;24435;-46
2022/09/06 03:45:48;;;;;;;11.65;10.75;;;;;;;;;;5064816;28;24940;-45
2022/09/06 03:48:13;;;;;;;12.50;11.50;;;;;;;;;;5067805;28;24414;-46
2022/09/06 03:50:43;;;;;;;11.30;10.40;;;;;;;;;;5037227;28;24428;-45
2022/09/06 03:53:08;;;;;;;12.05;11.13;;;;;;;;;;5047472;28;24458;-45
2022/09/06 03:55:33;;;;;;;11.52;10.63;;;;;;;;;;5054810;28;24462;-46
2022/09/06 03:57:58;;;;;;;12.53;11.53;;;;;;;;;;5056153;28;24420;-46
2022/09/06 04:00:23;;;;;;;12.02;11.02;;;;;;;;;;5048352;28;24469;-46
2022/09/06 04:02:48;;;;;;;12.73;11.82;;;;;;;;;;5037606;28;24415;-46
2022/09/06 04:05:15;;;;;;;12.52;11.52;;;;;;;;;;5044959;28;24473;-45
2022/09/06 04:07:41;;;;;;;12.18;11.27;;;;;;;;;;5044540;28;24447;-45
2022/09/06 04:10:06;;;;;;;12.18;11.23;;;;;;;;;;5042567;28;24447;-46
2022/09/06 04:12:33;;;;;;;12.37;11.47;;;;;;;;;;5038887;28;24419;-47
2022/09/06 04:14:58;;;;;;;12.30;11.30;;;;;;;;;;5038739;28;24716;-45
2022/09/06 04:17:23;;;;;;;12.27;11.45;;;;;;;;;;5045584;28;24576;-45
2022/09/06 04:19:49;;;;;;;11.82;11.02;;;;;;;;;;5040885;28;24454;-46
2022/09/06 04:22:14;;;;;;;12.48;11.40;;;;;;;;;;5036866;28;25102;-46
2022/09/06 04:24:39;;;;;;;12.98;12.05;;;;;;;;;;5045355;28;24477;-46
2022/09/06 04:27:04;;;;;;;13.40;12.30;;;;;;;;;;5040200;28;24526;-46
2022/09/06 04:29:29;;;;;;;12.33;11.40;;;;;;;;;;5039149;28;24423;-45
2022/09/06 04:31:54;;;;;;;12.02;11.13;;;;;;;;;;5041615;28;24420;-46
2022/09/06 04:34:20;;;;;;;13.50;12.40;;;;;;;;;;5033502;28;25019;-46
2022/09/06 04:36:45;;;;;;;12.47;11.47;;;;;;;;;;5037054;28;24492;-46
2022/09/06 04:39:10;;;;;;;13.00;11.90;;;;;;;;;;5036217;28;24627;-47
2022/09/06 04:41:35;;;;;;;13.00;12.00;;;;;;;;;;5037932;28;24449;-46
2022/09/06 04:44:00;;;;;;;12.60;11.70;;;;;;;;;;5044389;28;24425;-46
2022/09/06 04:46:27;;;;;;;11.90;11.00;;;;;;;;;;5044271;28;25063;-46
2022/09/06 04:48:53;;;;;;;14.27;12.98;;;;;;;;;;5043588;28;25141;-45
2022/09/06 04:51:18;;;;;;;13.63;12.63;;;;;;;;;;5042154;28;24435;-46
2022/09/06 04:53:43;;;;;;;12.95;11.95;;;;;;;;;;5044564;28;24428;-48
2022/09/06 04:56:12;;;;;;;12.60;11.60;;;;;;;;;;5043848;28;24810;-46
2022/09/06 04:58:49;;;;;;;12.20;11.20;;;;;;;;;;5031864;28;24432;-47
2022/09/06 05:01:15;;;;;;;13.43;12.35;;;;;;;;;;5027580;28;24429;-46
2022/09/06 05:03:40;;;;;;;12.73;11.73;;;;;;;;;;5031747;28;24428;-45
2022/09/06 05:06:09;;;;;;;12.93;11.93;;;;;;;;;;5031220;28;24528;-45
2022/09/06 05:08:38;;;;;;;12.00;11.07;;;;;;;;;;5028141;28;24438;-46
2022/09/06 05:11:04;;;;;;;12.70;11.70;;;;;;;;;;5030067;28;24435;-47
2022/09/06 05:13:30;;;;;;;12.68;11.57;;;;;;;;;;5027354;28;24592;-46
2022/09/06 05:15:58;;;;;;;11.50;10.60;;;;;;;;;;5033795;28;24510;-47
2022/09/06 05:18:23;;;;;;;12.02;11.02;;;;;;;;;;5031110;28;24489;-45
2022/09/06 05:20:52;;;;;;;10.90;10.10;;;;;;;;;;5038712;28;24415;-46
2022/09/06 05:23:17;;;;;;;11.93;11.02;;;;;;;;;;5037096;28;24428;-45
2022/09/06 05:25:42;;;;;;;11.50;10.60;;;;;;;;;;5044990;28;24774;-46
2022/09/06 05:28:08;;;;;;;10.60;9.90;;;;;;;;;;5046328;28;24401;-46
2022/09/06 05:30:33;;;;;;;11.05;10.27;;;;;;;;;;5046924;28;24526;-46
2022/09/06 05:32:58;;;;;;;11.75;10.77;;;;;;;;;;5045881;28;24418;-45
2022/09/06 05:35:23;;;;;;;10.43;9.68;;;;;;;;;;5047321;28;24514;-46
2022/09/06 05:37:48;;;;;;;10.70;9.90;;;;;;;;;;5047878;28;24398;-46
2022/09/06 05:40:14;;;;;;;10.50;9.70;;;;;;;;;;5048455;28;24386;-46
2022/09/06 05:42:39;;;;;;;10.77;9.87;;;;;;;;;;5037260;28;24474;-45
2022/09/06 05:45:05;;;;;;;10.60;9.80;;;;;;;;;;5027930;28;24431;-45
2022/09/06 05:47:34;;;;;;;9.60;8.90;;;;;;;;;;5027543;28;24877;-46
2022/09/06 05:49:59;;;;;;;10.00;9.00;;;;;;;;;;5031695;28;24549;-47
2022/09/06 05:52:24;;;;;;;10.70;9.90;;;;;;;;;;5033116;28;24458;-46
2022/09/06 05:54:49;;;;;;;10.00;9.10;;;;;;;;;;5028561;28;24467;-46
2022/09/06 05:57:14;;;;;;;9.70;8.90;;;;;;;;;;5041512;28;24840;-46
2022/09/06 05:59:39;;;;;;;9.30;8.60;;;;;;;;;;5047350;28;24423;-46
2022/09/06 06:02:05;;;;;;;9.93;9.02;;;;;;;;;;5067901;28;24429;-46
2022/09/06 06:04:30;;;;;;;9.47;8.60;;;;;;;;;;5047657;28;24481;-46
2022/09/06 06:06:55;;;;;;;10.00;9.20;;;;;;;;;;5043666;28;24416;-46
2022/09/06 06:09:20;;;;;;;9.60;8.80;;;;;;;;;;5032111;28;25022;-47
2022/09/06 06:11:45;;;;;;;10.10;9.20;;;;;;;;;;5037805;28;24435;-47
2022/09/06 06:14:10;;;;;;;9.20;8.40;;;;;;;;;;5036824;28;24518;-47
2022/09/06 06:16:35;;;;;;;9.17;8.37;;;;;;;;;;5043195;28;24992;-47
2022/09/06 06:19:01;;;;;;;9.90;9.20;;;;;;;;;;5035323;28;24462;-46
2022/09/06 06:21:29;;;;;;;9.10;8.47;;;;;;;;;;5036047;28;24435;-46
2022/09/06 06:23:59;;;;;;;9.73;8.93;;;;;;;;;;5057082;28;24502;-46
2022/09/06 06:26:25;;;;;;;9.40;8.70;;;;;;;;;;5046721;28;24459;-46
2022/09/06 06:28:51;;;;;;;9.85;9.07;;;;;;;;;;5033040;28;25289;-46
2022/09/06 06:31:16;;;;;;;9.50;8.80;;;;;;;;;;5043362;28;24435;-47
2022/09/06 06:33:42;;;;;;;8.68;7.97;;;;;;;;;;5035572;28;24435;-46
2022/09/06 06:36:30;;;;;;;8.40;7.70;;;;;;;;;;5041689;28;24458;-48
2022/09/06 06:38:55;;;;;;;8.37;7.77;;;;;;;;;;5044432;28;24999;-47
2022/09/06 06:41:24;;;;;;;8.90;8.17;;;;;;;;;;5042905;28;24454;-47
2022/09/06 06:43:50;;;;;;;8.93;8.02;;;;;;;;;;5038761;28;24428;-47
2022/09/06 06:46:16;;;;;;;8.35;7.60;;;;;;;;;;5045919;28;24480;-47
2022/09/06 06:48:44;;;;;;;9.27;8.57;;;;;;;;;;5046602;28;24395;-48
2022/09/06 06:51:11;;;;;;;9.60;8.80;;;;;;;;;;5046705;28;24434;-47
2022/09/06 06:53:36;;;;;;;9.02;8.30;;;;;;;;;;5046679;28;24414;-48
2022/09/06 06:56:12;;;;;;;9.10;8.40;;;;;;;;;;5038282;28;25176;-48
2022/09/06 06:58:37;;;;;;;8.40;7.80;;;;;;;;;;5026731;28;24526;-48
2022/09/06 07:01:02;;;;;;;9.30;8.55;;;;;;;;;;5026872;28;24553;-47
2022/09/06 07:03:27;;;;;;;9.10;8.40;;;;;;;;;;5026477;28;24391;-47
2022/09/06 07:05:53;;;;;;;8.95;8.27;;;;;;;;;;5032429;28;24505;-48
2022/09/06 07:08:18;;;;;;;8.70;8.00;;;;;;;;;;5046716;28;24403;-46
2022/09/06 07:10:43;;;;;;;9.10;8.50;;;;;;;;;;5046352;28;24403;-46
2022/09/06 07:13:08;;;;;;;8.93;8.13;;;;;;;;;;5046598;28;24460;-46
2022/09/06 07:15:33;;;;;;;8.90;8.20;;;;;;;;;;5045527;28;24472;-48
2022/09/06 07:17:59;;;;;;;9.15;8.45;;;;;;;;;;5046562;28;24415;-47
2022/09/06 07:20:27;;;;;;;9.07;8.37;;;;;;;;;;5046408;28;24387;-47
2022/09/06 07:22:59;;;;;;;8.70;8.00;;;;;;;;;;5046593;28;24479;-48
2022/09/06 07:25:24;;;;;;;8.27;7.57;;;;;;;;;;5045226;28;24523;-47
2022/09/06 07:27:55;;;;;;;8.43;7.63;;;;;;;;;;5022374;28;24516;-47
2022/09/06 07:30:20;;;;;;;9.07;8.18;;;;;;;;;;5026387;28;24452;-47
2022/09/06 07:32:45;;;;;;;8.98;8.18;;;;;;;;;;5040947;28;24881;-46
2022/09/06 07:35:12;;;;;;;8.97;8.27;;;;;;;;;;5044597;28;24407;-47
2022/09/06 07:37:37;;;;;;;8.93;8.30;;;;;;;;;;5034308;28;24464;-50
2022/09/06 07:40:03;;;;;;;10.10;9.30;;;;;;;;;;5048275;28;24485;-48
2022/09/06 07:42:29;;;;;;;8.50;7.60;;;;;;;;;;5048860;28;24774;-48
2022/09/06 07:44:56;;;;;;;9.17;8.37;;;;;;;;;;5050480;28;24536;-48
2022/09/06 07:47:21;;;;;;;8.68;7.88;;;;;;;;;;5048134;28;24573;-48
2022/09/06 07:49:46;;;;;;;7.50;6.93;;;;;;;;;;5046799;28;24620;-48
2022/09/06 07:52:12;;;;;;;8.20;7.60;;;;;;;;;;5046703;28;24501;-48
2022/09/06 07:54:37;;;;;;;8.60;7.90;;;;;;;;;;5046914;28;24765;-48
2022/09/06 07:57:02;;;;;;;9.40;8.60;;;;;;;;;;5046739;28;24793;-48
2022/09/06 07:59:27;;;;;;;8.83;8.03;;;;;;;;;;5048101;28;24380;-48
2022/09/06 08:01:52;;;;;;;8.35;7.75;;;;;;;;;;5046743;28;24949;-48
2022/09/06 08:04:17;;;;;;;8.23;7.63;;;;;;;;;;5029376;28;24462;-48
2022/09/06 08:06:45;;;;;;;8.20;7.60;;;;;;;;;;5045822;28;24799;-48
2022/09/06 08:09:10;;;;;;;9.57;8.77;;;;;;;;;;5038028;28;24941;-47
2022/09/06 08:11:36;;;;;;;9.33;8.53;;;;;;;;;;5046937;28;25056;-48
2022/09/06 08:14:02;;;;;;;9.00;8.30;;;;;;;;;;5049609;28;24416;-48
2022/09/06 08:16:28;;;;;;;9.27;8.57;;;;;;;;;;5049363;28;24493;-48
2022/09/06 08:18:54;;;;;;;8.45;7.85;;;;;;;;;;5047183;28;26521;-47
2022/09/06 08:21:22;;;;;;;9.27;8.52;;;;;;;;;;5048750;28;24435;-48
2022/09/06 08:23:48;;;;;;;8.02;7.43;;;;;;;;;;5048521;28;25000;-47
2022/09/06 08:26:14;;;;;;;8.45;7.85;;;;;;;;;;5049119;28;24944;-48
2022/09/06 08:28:40;;;;;;;9.05;8.35;;;;;;;;;;5048947;28;24415;-48
2022/09/06 08:31:06;;;;;;;9.30;8.60;;;;;;;;;;5049394;28;25144;-47
2022/09/06 08:33:31;;;;;;;8.73;8.02;;;;;;;;;;5048089;28;24419;-52
2022/09/06 08:35:57;;;;;;;8.70;8.00;;;;;;;;;;5041951;28;24466;-47
2022/09/06 08:38:24;;;;;;;8.60;7.90;;;;;;;;;;5035365;28;21408;-47
2022/09/06 08:40:50;;;;;;;7.83;7.23;;;;;;;;;;5040044;28;24971;-46
2022/09/06 08:43:19;;;;;;;8.75;8.05;;;;;;;;;;5048674;28;24860;-46
2022/09/06 08:45:46;;;;;;;8.80;8.10;;;;;;;;;;5049164;28;24453;-47
2022/09/06 08:48:11;;;;;;;8.90;8.10;;;;;;;;;;5048419;28;24454;-47
2022/09/06 08:50:37;;;;;;;8.95;8.25;;;;;;;;;;5045813;28;24953;-45
2022/09/06 08:53:07;;;;;;;8.70;8.10;;;;;;;;;;5031951;28;24422;-46
2022/09/06 08:55:35;;;;;;;8.50;7.80;;;;;;;;;;5040583;28;24466;-45
2022/09/06 08:58:23;;;;;;;8.50;7.53;;;;;;;;;;5028219;28;24403;-46
2022/09/06 09:00:50;;;;;;;8.90;8.20;;;;;;;;;;5028407;28;24396;-46
2022/09/06 09:03:18;;;;;;;8.80;8.20;;;;;;;;;;5033312;28;24439;-45
2022/09/06 09:05:46;;;;;;;8.95;8.27;;;;;;;;;;5048046;28;24762;-46
2022/09/06 09:08:23;;;;;;;8.50;7.80;;;;;;;;;;5048216;28;24395;-45
2022/09/06 09:10:50;;;;;;;8.50;7.80;;;;;;;;;;5048197;28;24399;-46
2022/09/06 09:13:34;;;;;;;8.13;7.53;;;;;;;;;;5045960;28;24402;-47
2022/09/06 09:16:00;;;;;;;9.27;8.52;;;;;;;;;;5027737;28;24431;-46
2022/09/06 09:18:30;;;;;;;8.90;8.20;;;;;;;;;;5025898;28;24458;-46
2022/09/06 09:20:56;;;;;;;8.50;7.80;;;;;;;;;;5027892;28;24396;-46
2022/09/06 09:23:22;;;;;;;8.50;7.90;;;;;;;;;;5028165;28;24937;-47
2022/09/06 09:25:47;;;;;;;8.73;7.93;;;;;;;;;;5028244;28;24403;-46
2022/09/06 09:28:16;;;;;;;8.60;7.90;;;;;;;;;;5026063;28;25164;-47
2022/09/06 09:30:46;;;;;;;7.90;7.30;;;;;;;;;;5028010;28;24404;-46
2022/09/06 09:33:20;;;;;;;7.97;7.30;;;;;;;;;;5028262;28;24411;-47
2022/09/06 09:35:46;;;;;;;8.50;7.90;;;;;;;;;;5034695;28;24432;-46
2022/09/06 09:38:13;;;;;;;7.50;7.00;;;;;;;;;;5048010;28;24403;-46
2022/09/06 09:40:40;;;;;;;7.50;6.90;;;;;;;;;;5048230;28;24438;-46
2022/09/06 09:43:16;;;;;;;7.90;7.30;;;;;;;;;;5047749;28;24403;-47
2022/09/06 09:45:42;;;;;;;8.93;8.13;;;;;;;;;;5047051;28;24427;-47
2022/09/06 09:48:23;;;;;;;9.43;8.63;;;;;;;;;;5047634;28;24418;-46
2022/09/06 09:50:48;;;;;;;9.45;8.68;;;;;;;;;;5047593;28;24392;-47
2022/09/06 09:53:15;;;;;;;8.73;8.03;;;;;;;;;;5047764;28;24793;-47
2022/09/06 09:55:41;;;;;;;8.90;8.20;;;;;;;;;;5031682;28;24450;-48
2022/09/06 09:58:07;;;;;;;8.83;8.20;;;;;;;;;;5027754;28;24404;-48
2022/09/06 10:00:40;;;;;;;8.93;8.13;;;;;;;;;;5027339;28;24426;-47
2022/09/06 10:03:12;;;;;;;8.17;7.57;;;;;;;;;;5027453;28;24434;-47
2022/09/06 10:05:38;;;;;;;8.05;7.50;;;;;;;;;;5039911;28;24424;-47
2022/09/06 10:08:08;;;;;;;8.30;7.70;;;;;;;;;;5047155;28;24730;-48
2022/09/06 10:10:37;;;;;;;8.48;7.68;;;;;;;;;;5045349;28;24442;-45
2022/09/06 10:13:08;;;;;;;8.50;7.70;;;;;;;;;;5047363;28;24402;-47
2022/09/06 10:15:34;;;;;;;7.60;7.00;;;;;;;;;;5044060;28;24514;-47
2022/09/06 10:18:00;;;;;;;8.00;7.30;;;;;;;;;;5026140;28;24392;-47
2022/09/06 10:20:30;;;;;;;8.20;7.50;;;;;;;;;;5027564;28;24454;-47
2022/09/06 10:23:05;;;;;;;6.90;6.40;;;;;;;;;;5027156;28;24403;-48
2022/09/06 10:25:30;;;;;;;8.40;7.70;;;;;;;;;;5036681;28;24798;-48
2022/09/06 10:28:15;;;;;;;7.82;7.32;;;;;;;;;;5044352;28;25069;-47
2022/09/06 10:30:43;;;;;;;8.20;7.60;;;;;;;;;;5044304;28;24489;-48
2022/09/06 10:33:41;;;;;;;8.40;7.80;;;;;;;;;;5047129;28;24399;-47
2022/09/06 10:36:06;;;;;;;8.55;7.90;;;;;;;;;;5032957;28;24452;-47
2022/09/06 10:38:31;;;;;;;8.20;7.50;;;;;;;;;;5044752;28;24396;-48
2022/09/06 10:41:00;;;;;;;8.70;8.00;;;;;;;;;;5045834;28;24613;-47
2022/09/06 10:43:30;;;;;;;7.90;7.40;;;;;;;;;;5046975;28;24457;-48
2022/09/06 10:46:01;;;;;;;8.98;8.15;;;;;;;;;;5045931;28;24987;-47
2022/09/06 10:48:30;;;;;;;8.38;7.78;;;;;;;;;;5043633;28;24431;-48
2022/09/06 10:51:04;;;;;;;8.25;7.55;;;;;;;;;;5045621;28;24453;-47
2022/09/06 10:53:41;;;;;;;8.40;7.80;;;;;;;;;;5045578;28;25026;-48
2022/09/06 10:56:11;;;;;;;8.60;7.90;;;;;;;;;;5027029;28;24985;-47
2022/09/06 10:58:40;;;;;;;8.30;7.80;;;;;;;;;;5028395;28;24443;-47
2022/09/06 11:01:06;;;;;;;7.97;7.30;;;;;;;;;;5043106;28;24411;-47
2022/09/06 11:03:34;;;;;;;8.00;7.40;;;;;;;;;;5045588;28;25152;-48
2022/09/06 11:06:03;;;;;;;7.80;7.30;;;;;;;;;;5042996;28;24399;-47
2022/09/06 11:08:32;;;;;;;8.40;7.70;;;;;;;;;;5042660;28;24501;-47
2022/09/06 11:11:01;;;;;;;8.70;8.10;;;;;;;;;;5044516;28;25002;-47
2022/09/06 11:13:27;;;;;;;8.70;8.10;;;;;;;;;;5049257;28;25292;-47
2022/09/06 11:16:05;;;;;;;8.38;7.88;;;;;;;;;;5048018;28;24510;-47
2022/09/06 11:18:37;;;;;;;8.40;7.70;;;;;;;;;;5048485;28;24498;-47
2022/09/06 11:21:21;;;;;;;8.65;7.95;;;;;;;;;;5046845;28;24769;-47
2022/09/06 11:23:56;;;;;;;8.45;7.85;;;;;;;;;;5042672;28;24829;-46
2022/09/06 11:26:36;;;;;;;7.85;7.35;;;;;;;;;;5026897;28;24770;-49
2022/09/06 11:29:27;;;;;;;8.27;7.65;;;;;;;;;;5041325;28;24864;-47
2022/09/06 11:31:54;;;;;;;8.75;8.15;;;;;;;;;;5036147;28;24553;-45
2022/09/06 11:34:24;;;;;;;8.63;7.93;;;;;;;;;;5041208;28;24616;-47
2022/09/06 11:36:57;;;;;;;9.20;8.50;;;;;;;;;;5048457;28;24407;-47
2022/09/06 11:39:24;;;;;;;8.17;7.57;;;;;;;;;;5047685;28;24805;-47
2022/09/06 11:41:49;;;;;;;8.53;7.83;;;;;;;;;;5046243;28;24419;-47
2022/09/06 11:44:35;;;;;;;8.25;7.55;;;;;;;;;;5048703;28;24484;-48
2022/09/06 11:47:00;;;;;;;8.10;7.50;;;;;;;;;;5049787;28;25138;-47
2022/09/06 11:49:33;;;;;;;9.10;8.40;;;;;;;;;;5048135;28;24435;-47
2022/09/06 11:51:59;;;;;;;8.57;7.97;;;;;;;;;;5044786;28;24439;-47
2022/09/06 11:54:26;;;;;;;8.30;7.70;;;;;;;;;;5029268;28;24438;-48
2022/09/06 11:56:57;;;;;;;7.90;7.40;;;;;;;;;;5029979;28;24423;-48
2022/09/06 11:59:28;;;;;;;8.48;7.97;;;;;;;;;;5039969;28;24634;-47
2022/09/06 12:01:53;;;;;;;8.77;8.00;;;;;;;;;;5046191;28;24862;-46
2022/09/06 12:04:18;;;;;;;8.05;7.55;;;;;;;;;;5046644;28;24906;-47
2022/09/06 12:07:04;;;;;;;8.30;7.70;;;;;;;;;;5048422;28;24438;-47
2022/09/06 12:09:32;;;;;;;8.68;8.05;;;;;;;;;;5046481;28;24462;-47
2022/09/06 12:11:58;;;;;;;8.93;8.23;;;;;;;;;;5046668;28;24736;-47
2022/09/06 12:14:31;;;;;;;8.50;7.90;;;;;;;;;;5039486;28;24423;-47
2022/09/06 12:16:56;;;;;;;8.60;7.90;;;;;;;;;;5049334;28;24480;-46
2022/09/06 12:19:40;;;;;;;7.90;7.40;;;;;;;;;;5046171;28;24965;-48
2022/09/06 12:22:23;;;;;;;8.45;7.85;;;;;;;;;;5045220;28;24758;-47
2022/09/06 12:24:50;;;;;;;8.00;7.50;;;;;;;;;;5027528;28;24431;-47
2022/09/06 12:27:20;;;;;;;8.90;8.10;;;;;;;;;;5029760;28;24395;-47
2022/09/06 12:29:48;;;;;;;8.10;7.60;;;;;;;;;;5029562;28;24511;-48
2022/09/06 12:32:18;;;;;;;8.40;7.80;;;;;;;;;;5040924;28;24817;-46
2022/09/06 12:34:43;;;;;;;8.20;7.70;;;;;;;;;;5047887;28;25198;-46
2022/09/06 12:37:09;;;;;;;8.10;7.60;;;;;;;;;;5031592;28;25035;-47
2022/09/06 12:39:35;;;;;;;7.90;7.40;;;;;;;;;;5029215;28;24438;-47
2022/09/06 12:42:02;;;;;;;7.35;6.78;;;;;;;;;;5029311;28;24396;-48
2022/09/06 12:44:35;;;;;;;7.78;7.07;;;;;;;;;;5029120;28;24926;-47
2022/09/06 12:47:04;;;;;;;8.18;7.63;;;;;;;;;;5046645;28;24459;-47
2022/09/06 12:49:29;;;;;;;9.10;8.20;;;;;;;;;;5049065;28;24438;-47
2022/09/06 12:52:08;;;;;;;8.23;7.53;;;;;;;;;;5049064;28;24425;-48
2022/09/06 12:54:40;;;;;;;8.48;7.68;;;;;;;;;;5047819;28;24407;-47
2022/09/06 12:57:14;;;;;;;7.93;7.32;;;;;;;;;;5046223;28;24440;-48
2022/09/06 12:59:46;;;;;;;7.20;6.70;;;;;;;;;;5048565;28;24933;-47
2022/09/06 13:02:14;;;;;;;7.70;7.10;;;;;;;;;;5048692;28;24457;-48
2022/09/06 13:04:45;;;;;;;7.18;6.68;;;;;;;;;;5048571;28;24391;-47
2022/09/06 13:07:14;;;;;;;6.80;6.40;;;;;;;;;;5030564;28;24464;-46
2022/09/06 13:09:41;;;;;;;7.80;7.20;;;;;;;;;;5028699;28;25067;-47
2022/09/06 13:12:09;;;;;;;7.80;7.10;;;;;;;;;;5028679;28;24415;-47
2022/09/06 13:14:34;;;;;;;7.30;6.80;;;;;;;;;;5031147;28;24805;-48
2022/09/06 13:17:00;;;;;;;7.30;6.80;;;;;;;;;;5038138;28;25004;-47
2022/09/06 13:19:33;;;;;;;7.00;6.50;;;;;;;;;;5036211;28;24781;-47
2022/09/06 13:21:59;;;;;;;6.93;6.53;;;;;;;;;;5036202;28;24510;-48
2022/09/06 13:24:38;;;;;;;6.90;6.50;;;;;;;;;;5041431;28;24542;-47
2022/09/06 13:27:22;;;;;;;6.80;6.30;;;;;;;;;;5039612;28;24734;-48
2022/09/06 13:29:53;;;;;;;7.40;6.90;;;;;;;;;;5034425;28;24427;-48
2022/09/06 13:32:18;;;;;;;7.15;6.65;;;;;;;;;;5035065;28;24442;-47
2022/09/06 13:34:48;;;;;;;7.20;6.70;;;;;;;;;;5036158;28;24555;-48
2022/09/06 13:37:13;;;;;;;7.90;7.20;;;;;;;;;;5033981;28;25251;-48
2022/09/06 13:39:40;;;;;;;7.50;6.90;;;;;;;;;;5039413;28;24422;-47
2022/09/06 13:42:09;;;;;;;7.53;7.03;;;;;;;;;;5040768;28;24473;-47
2022/09/06 13:44:36;;;;;;;6.90;6.40;;;;;;;;;;5038751;28;24473;-48
2022/09/06 13:47:01;;;;;;;5.90;5.40;;;;;;;;;;5036822;28;24449;-46
2022/09/06 13:49:27;;;;;;;6.18;5.50;;;;;;;;;;5037125;28;24490;-48
2022/09/06 13:51:53;;;;;;;5.13;4.63;;;;;;;;;;5034007;28;24462;-47
2022/09/06 13:54:19;;;;;;;5.10;4.60;;;;;;;;;;5043774;28;24942;-47
2022/09/06 13:56:44;;;;;;;4.80;4.40;;;;;;;;;;5046594;28;24593;-47
2022/09/06 13:59:09;;;;;;;5.73;5.17;;;;;;;;;;5039807;28;24431;-49
2022/09/06 14:01:35;;;;;;;7.13;6.05;;;;;;;;;;5035794;28;24988;-48
2022/09/06 14:04:00;;;;;;;6.33;5.73;;;;;;;;;;5035087;28;24466;-47
2022/09/06 14:06:26;;;;;;;6.22;5.68;;;;;;;;;;5031411;28;24950;-47
2022/09/06 14:08:51;;;;;;;6.50;5.90;;;;;;;;;;5040844;28;24957;-48
2022/09/06 14:11:17;;;;;;;7.10;6.40;;;;;;;;;;5029660;28;24517;-48
2022/09/06 14:13:42;;;;;;;7.00;6.40;;;;;;;;;;5039646;28;24422;-48
2022/09/06 14:16:08;;;;;;;6.50;5.90;;;;;;;;;;5030085;28;24420;-48
2022/09/06 14:18:33;;;;;;;7.97;7.38;;;;;;;;;;5042334;28;24415;-48
2022/09/06 14:20:58;;;;;;;9.80;9.00;;;;;;;;;;5035356;28;24451;-48
2022/09/06 14:23:24;;;;;;;8.65;7.95;;;;;;;;;;5037878;28;24520;-47
2022/09/06 14:25:59;;;;;;;8.70;8.00;;;;;;;;;;5034577;28;24424;-47
2022/09/06 14:28:24;;;;;;;9.70;8.88;;;;;;;;;;5040456;28;25056;-47
2022/09/06 14:30:50;;;;;;;8.93;8.23;;;;;;;;;;5036702;28;24434;-47
2022/09/06 14:33:15;;;;;;;9.80;9.00;;;;;;;;;;5041939;28;24433;-47
2022/09/06 14:35:41;;;;;;;9.13;8.43;;;;;;;;;;5035159;28;24498;-47
2022/09/06 14:38:06;;;;;;;9.33;8.63;;;;;;;;;;5041605;28;24419;-47